Time;durP1;ratioP1;P1;durP2;ratioP2;P2;SDS_P1;SDS_P2;PMS_P1;PMS_P2;Temp;Humidity;BMP_temperature;BMP_pressure;BME280_temperature;BME280_humidity;BME280_pressure;Samples;Min_cycle;Max_cycle;Signal;HPM_P1;HPM_P2
2022/08/02 00:00:56;;;;;;;6.92;6.22;;;;;;;18.38;100.00;100386.80;1734702;81;21088;-94
2022/08/02 00:03:23;;;;;;;6.65;5.87;;;;;;;18.40;100.00;100388.74;1752967;81;21073;-93
2022/08/02 00:05:50;;;;;;;6.72;6.12;;;;;;;18.41;100.00;100394.34;1808921;78;21503;-93
2022/08/02 00:08:18;;;;;;;6.85;6.12;;;;;;;18.42;100.00;100389.40;1798302;79;21137;-93
2022/08/02 00:10:45;;;;;;;7.60;6.42;;;;;;;18.38;100.00;100378.89;1798590;79;21039;-93
2022/08/02 00:13:12;;;;;;;7.22;6.15;;;;;;;18.35;100.00;100379.22;1807237;78;21035;-94
2022/08/02 00:15:39;;;;;;;9.23;7.10;;;;;;;18.27;100.00;100355.87;1807567;78;21355;-94
2022/08/02 00:18:06;;;;;;;8.30;7.50;;;;;;;18.18;100.00;100327.91;1806737;78;21496;-93
2022/08/02 00:20:33;;;;;;;8.03;7.22;;;;;;;18.09;100.00;100297.32;1808607;79;21134;-93
2022/08/02 00:23:00;;;;;;;7.33;6.72;;;;;;;17.98;100.00;100262.97;1804397;78;21031;-93
2022/08/02 00:25:27;;;;;;;7.30;6.60;;;;;;;17.88;100.00;100242.57;1811251;78;21004;-93
2022/08/02 00:27:54;;;;;;;9.00;7.03;;;;;;;17.81;100.00;100239.83;1799294;78;20994;-94
2022/08/02 00:30:21;;;;;;;7.40;6.67;;;;;;;17.76;100.00;100243.45;1810947;78;21037;-93
2022/08/02 00:32:48;;;;;;;8.08;7.12;;;;;;;17.71;100.00;100265.02;1797942;79;21240;-93
2022/08/02 00:35:15;;;;;;;8.15;7.00;;;;;;;17.70;100.00;100291.06;1731312;81;21033;-93
2022/08/02 00:37:43;;;;;;;6.95;6.35;;;;;;;17.73;100.00;100310.95;1802529;78;21065;-93
2022/08/02 00:40:11;;;;;;;7.67;6.97;;;;;;;17.74;100.00;100312.60;1807210;78;21574;-93
2022/08/02 00:42:39;;;;;;;9.83;7.60;;;;;;;17.75;100.00;100307.63;1739558;81;20955;-92
2022/08/02 00:45:08;;;;;;;8.93;7.10;;;;;;;17.74;100.00;100294.17;1749749;81;21900;-92
2022/08/02 00:47:35;;;;;;;8.33;7.10;;;;;;;17.75;100.00;100269.45;1747180;81;21057;-92
2022/08/02 00:50:04;;;;;;;7.62;6.90;;;;;;;17.75;100.00;100252.34;1808293;79;20986;-92
2022/08/02 00:52:31;;;;;;;10.03;7.00;;;;;;;17.75;100.00;100243.96;1736650;82;21002;-92
2022/08/02 00:54:59;;;;;;;7.95;7.15;;;;;;;17.78;100.00;100240.16;1759551;81;21061;-92
2022/08/02 00:57:26;;;;;;;8.50;7.70;;;;;;;17.79;100.00;100226.00;1812008;78;21886;-93
2022/08/02 00:59:53;;;;;;;8.38;7.67;;;;;;;17.81;100.00;100205.59;1802307;78;21288;-92
2022/08/02 01:02:20;;;;;;;8.85;7.97;;;;;;;17.81;100.00;100177.94;1729145;82;21548;-92
2022/08/02 01:04:47;;;;;;;9.08;8.18;;;;;;;17.78;100.00;100138.78;1739608;82;21043;-93
2022/08/02 01:08:05;;;;;;;9.38;8.58;;;;;;;17.77;100.00;100083.16;1751041;81;21062;-92
2022/08/02 01:10:32;;;;;;;11.10;8.90;;;;;;;17.74;100.00;100009.80;1756800;81;21285;-93
2022/08/02 01:13:00;;;;;;;10.32;9.40;;;;;;;17.68;100.00;99948.62;1753746;81;21602;-92
2022/08/02 01:16:30;;;;;;;11.85;9.43;;;;;;;17.62;100.00;99948.34;1750378;81;21112;-90
2022/08/02 01:19:03;;;;;;;9.70;8.68;;;;;;;17.59;100.00;100006.59;1752351;81;21031;-91
2022/08/02 01:21:55;;;;;;;10.18;9.28;;;;;;;17.60;100.00;100128.52;1745847;81;21057;-91
2022/08/02 01:24:56;;;;;;;10.20;9.20;;;;;;;17.61;100.00;100158.62;1746823;81;21165;-91
2022/08/02 01:28:07;;;;;;;8.38;7.67;;;;;;;17.65;100.00;100192.84;1746624;81;21045;-93
2022/08/02 01:30:37;;;;;;;8.73;7.90;;;;;;;17.66;100.00;100229.19;1746401;81;21025;-91
2022/08/02 01:33:06;;;;;;;9.68;8.60;;;;;;;17.67;100.00;100255.84;1746772;81;22065;-92
2022/08/02 01:35:38;;;;;;;9.30;8.38;;;;;;;17.69;100.00;100255.66;1754508;81;21597;-93
2022/08/02 01:38:10;;;;;;;8.70;8.00;;;;;;;17.70;100.00;100249.41;1754541;81;21154;-92
2022/08/02 01:40:41;;;;;;;8.30;7.50;;;;;;;17.70;100.00;100233.61;1748812;81;21112;-91
2022/08/02 01:43:09;;;;;;;8.83;7.60;;;;;;;17.71;100.00;100223.41;1748605;81;21113;-92
2022/08/02 01:45:40;;;;;;;8.88;8.05;;;;;;;17.71;100.00;100249.73;1755720;81;21085;-92
2022/08/02 01:48:09;;;;;;;8.67;7.83;;;;;;;17.72;100.00;100263.23;1757157;81;21339;-92
2022/08/02 01:50:37;;;;;;;7.97;7.17;;;;;;;17.72;100.00;100259.28;1748924;81;21152;-91
2022/08/02 01:53:10;;;;;;;8.23;7.42;;;;;;;17.72;100.00;100254.82;1751448;81;21045;-91
2022/08/02 01:55:44;;;;;;;8.50;7.70;;;;;;;17.74;100.00;100259.94;1751733;81;20967;-91
2022/08/02 01:58:14;;;;;;;8.48;7.67;;;;;;;17.74;100.00;100269.97;1746489;81;21045;-91
2022/08/02 02:00:43;;;;;;;7.87;7.17;;;;;;;17.76;100.00;100281.16;1750669;81;21288;-92
2022/08/02 02:03:23;;;;;;;8.28;7.47;;;;;;;17.77;100.00;100281.96;1750487;81;21836;-91
2022/08/02 02:05:54;;;;;;;7.87;7.22;;;;;;;17.79;100.00;100291.33;1756278;81;21037;-91
2022/08/02 02:08:24;;;;;;;;;;;;;;;17.80;100.00;100281.63;1760670;81;21061;-92
2022/08/02 02:10:52;;;;;;;7.70;6.90;;;;;;;17.79;100.00;100273.41;1768150;80;20148;-91
2022/08/02 02:13:20;;;;;;;8.18;7.35;;;;;;;17.81;100.00;100268.80;1767179;80;21028;-92
2022/08/02 02:15:50;;;;;;;8.40;7.65;;;;;;;17.82;100.00;100262.03;1724228;81;21299;-92
2022/08/02 02:18:24;;;;;;;8.50;7.70;;;;;;;17.86;100.00;100258.55;1719655;81;21072;-91
2022/08/02 02:20:52;;;;;;;8.23;7.53;;;;;;;17.87;100.00;100260.20;1716195;81;21564;-91
2022/08/02 02:23:20;;;;;;;8.10;7.40;;;;;;;17.90;100.00;100254.59;1723570;81;21478;-91
2022/08/02 02:25:47;;;;;;;7.70;7.00;;;;;;;17.91;100.00;100253.58;1726638;82;21516;-91
2022/08/02 02:28:32;;;;;;;8.73;7.85;;;;;;;17.95;100.00;100255.38;1722604;81;21089;-91
2022/08/02 02:31:09;;;;;;;8.50;7.70;;;;;;;17.95;100.00;100239.56;1713960;82;21531;-91
2022/08/02 02:33:40;;;;;;;8.30;7.50;;;;;;;17.94;100.00;100236.13;1721293;81;21046;-92
2022/08/02 02:36:08;;;;;;;;;;;;;;;17.90;100.00;100222.16;1728202;82;21012;-92
2022/08/02 02:38:36;;;;;;;9.25;8.35;;;;;;;17.83;100.00;100207.53;1731430;81;20204;-91
2022/08/02 02:41:05;;;;;;;9.10;8.30;;;;;;;17.75;100.00;100199.67;1718305;81;21145;-91
2022/08/02 02:43:35;;;;;;;9.13;8.20;;;;;;;17.66;100.00;100182.63;1722596;82;21002;-92
2022/08/02 02:46:04;;;;;;;8.93;8.13;;;;;;;17.63;100.00;100187.39;1725197;81;21043;-91
2022/08/02 02:48:33;;;;;;;9.48;8.38;;;;;;;17.59;100.00;100193.50;1716505;81;21115;-91
2022/08/02 02:51:04;;;;;;;8.60;7.90;;;;;;;17.59;100.00;100230.86;1728865;82;21119;-91
2022/08/02 02:53:32;;;;;;;8.10;7.40;;;;;;;17.61;100.00;100275.77;1726899;81;21877;-91
2022/08/02 02:56:00;;;;;;;8.23;7.47;;;;;;;17.64;100.00;100315.41;1720866;81;21080;-91
2022/08/02 02:58:29;;;;;;;7.90;7.20;;;;;;;17.70;100.00;100348.14;1729908;81;21131;-91
2022/08/02 03:03:44;;;;;;;9.13;8.23;;;;;;;17.76;100.00;100352.25;1734808;82;21543;-91
2022/08/02 03:06:11;;;;;;;8.58;7.78;;;;;;;17.80;100.00;100348.78;1717432;82;21215;-91
2022/08/02 03:08:39;;;;;;;9.35;8.50;;;;;;;17.83;100.00;100353.69;1689790;83;21084;-91
2022/08/02 03:11:09;;;;;;;8.45;7.65;;;;;;;17.86;100.00;100345.46;1728951;81;21548;-91
2022/08/02 03:13:37;;;;;;;8.20;7.53;;;;;;;17.90;100.00;100345.47;1736386;81;20978;-91
2022/08/02 03:16:05;;;;;;;8.18;7.47;;;;;;;17.95;100.00;100358.09;1744537;81;20998;-91
2022/08/02 03:18:38;;;;;;;9.95;7.97;;;;;;;17.99;100.00;100357.33;1728347;81;21146;-90
2022/08/02 03:21:08;;;;;;;8.70;8.00;;;;;;;18.02;100.00;100369.66;1739809;81;21046;-91
2022/08/02 03:23:37;;;;;;;8.60;7.90;;;;;;;18.03;100.00;100379.69;1727114;81;21057;-90
2022/08/02 03:26:04;;;;;;;8.50;7.80;;;;;;;18.04;100.00;100393.19;1787352;79;21057;-90
2022/08/02 03:28:41;;;;;;;9.10;8.20;;;;;;;18.05;100.00;100389.05;1787227;79;21534;-91
2022/08/02 03:31:03;;;;;;;8.30;7.50;;;;;;;18.09;100.00;100390.38;1789481;78;21516;-92
2022/08/02 03:33:32;;;;;;;8.33;7.45;;;;;;;18.13;100.00;100374.53;1781629;79;21009;-91
2022/08/02 03:36:04;;;;;;;8.83;8.13;;;;;;;18.17;100.00;100355.25;1781576;79;21542;-91
2022/08/02 03:38:34;;;;;;;7.50;6.80;;;;;;;18.18;100.00;100338.45;1784156;79;21500;-90
2022/08/02 03:41:03;;;;;;;8.05;7.35;;;;;;;18.17;100.00;100335.48;1727177;81;21837;-90
2022/08/02 03:43:31;;;;;;;7.45;6.78;;;;;;;18.19;100.00;100330.04;1707217;83;21161;-90
2022/08/02 03:46:00;;;;;;;10.28;8.30;;;;;;;18.21;100.00;100324.11;1736461;81;21583;-91
2022/08/02 03:48:30;;;;;;;8.48;7.78;;;;;;;18.23;100.00;100302.36;1803017;79;21504;-92
2022/08/02 03:50:59;;;;;;;8.33;7.53;;;;;;;18.20;100.00;100301.37;1798528;79;21033;-92
2022/08/02 03:53:27;;;;;;;8.85;8.08;;;;;;;18.18;100.00;100276.53;1779612;79;21424;-92
2022/08/02 03:55:55;;;;;;;9.13;8.33;;;;;;;18.19;100.00;100251.83;1780145;79;21228;-91
2022/08/02 03:58:23;;;;;;;9.30;8.58;;;;;;;18.16;100.00;100246.09;1783619;79;21496;-93
2022/08/02 04:00:53;;;;;;;8.45;7.75;;;;;;;18.10;100.00;100241.01;1796208;79;21057;-92
2022/08/02 04:03:21;;;;;;;9.57;8.77;;;;;;;18.03;100.00;100246.14;1789797;79;21038;-92
2022/08/02 04:05:49;;;;;;;9.50;8.55;;;;;;;17.99;100.00;100240.10;1782606;79;21071;-93
2022/08/02 04:08:16;;;;;;;9.73;8.85;;;;;;;17.96;100.00;100240.77;1798869;79;21555;-93
2022/08/02 04:13:33;;;;;;;10.10;8.33;;;;;;;18.04;100.00;100250.93;1806490;78;21056;-91
2022/08/02 04:16:11;;;;;;;9.13;8.33;;;;;;;18.08;100.00;100251.73;1726894;82;20994;-92
2022/08/02 04:18:58;;;;;;;9.13;8.33;;;;;;;18.13;100.00;100238.04;1747878;80;21032;-93
2022/08/02 04:21:32;;;;;;;9.13;8.20;;;;;;;18.20;100.00;100240.77;1734867;81;21072;-92
2022/08/02 04:24:02;;;;;;;9.73;8.83;;;;;;;18.24;100.00;100233.66;1800081;78;21484;-92
2022/08/02 04:26:31;;;;;;;9.10;8.33;;;;;;;18.33;100.00;100234.45;1799826;78;21061;-92
2022/08/02 04:28:59;;;;;;;11.08;10.08;;;;;;;18.40;100.00;100218.25;1808916;78;21958;-93
2022/08/02 04:31:27;;;;;;;10.65;9.75;;;;;;;18.47;100.00;100214.39;1798126;78;21016;-93
2022/08/02 04:33:54;;;;;;;9.28;8.48;;;;;;;18.49;100.00;100217.67;1799847;78;21869;-93
2022/08/02 04:36:21;;;;;;;8.98;8.18;;;;;;;18.54;100.00;100235.12;1797858;78;21058;-93
2022/08/02 04:38:49;;;;;;;8.90;8.20;;;;;;;18.62;100.00;100246.08;1801756;78;21072;-93
2022/08/02 04:41:16;;;;;;;8.63;7.75;;;;;;;18.70;100.00;100232.83;1800213;79;21045;-93
2022/08/02 04:43:44;;;;;;;9.23;8.43;;;;;;;18.75;100.00;100223.07;1799609;78;21073;-94
2022/08/02 04:46:11;;;;;;;9.38;8.48;;;;;;;18.79;100.00;100224.84;1801525;78;21196;-94
2022/08/02 04:48:38;;;;;;;8.93;8.03;;;;;;;18.80;100.00;100236.53;1742279;80;21543;-93
2022/08/02 04:51:05;;;;;;;9.25;8.35;;;;;;;18.84;100.00;100235.67;1749412;81;21084;-93
2022/08/02 04:53:33;;;;;;;10.68;8.75;;;;;;;18.90;100.00;100230.51;1735362;81;21083;-94
2022/08/02 04:56:00;;;;;;;9.50;8.60;;;;;;;18.95;100.00;100235.80;1749738;81;21013;-94
2022/08/02 04:58:27;;;;;;;10.43;9.53;;;;;;;19.01;100.00;100245.62;1799449;78;21226;-93
2022/08/02 05:00:54;;;;;;;9.68;8.88;;;;;;;19.08;100.00;100258.41;1804441;79;20998;-94
2022/08/02 05:03:21;;;;;;;10.20;9.30;;;;;;;19.14;100.00;100267.43;1737425;80;21034;-95
2022/08/02 05:05:48;;;;;;;9.33;8.48;;;;;;;19.21;100.00;100269.66;1744745;81;21018;-95
2022/08/02 05:08:16;;;;;;;10.38;9.00;;;;;;;19.31;100.00;100277.31;1736582;81;21161;-95
2022/08/02 05:10:43;;;;;;;9.98;9.08;;;;;;;19.39;100.00;100280.67;1744500;81;21564;-94
2022/08/02 05:13:10;;;;;;;9.78;8.88;;;;;;;19.48;100.00;100289.34;1788356;79;21125;-93
2022/08/02 05:15:37;;;;;;;9.75;8.95;;;;;;;19.57;100.00;100287.93;1785207;79;21096;-96
2022/08/02 05:18:05;;;;;;;9.08;8.18;;;;;;;19.65;100.00;100294.44;1793799;79;20979;-96
2022/08/02 05:20:32;;;;;;;10.40;9.30;;;;;;;19.73;100.00;100286.42;1792562;79;21057;-95
2022/08/02 05:22:59;;;;;;;10.78;9.68;;;;;;;19.80;100.00;100279.39;1796448;78;21998;-95
2022/08/02 05:25:26;;;;;;;9.63;8.85;;;;;;;19.89;100.00;100277.48;1729043;82;21587;-94
2022/08/02 05:27:53;;;;;;;10.28;9.38;;;;;;;19.97;100.00;100281.86;1738965;81;21610;-93
2022/08/02 05:30:20;;;;;;;9.85;9.05;;;;;;;20.05;100.00;100276.47;1737052;81;21089;-94
2022/08/02 05:32:55;;;;;;;10.70;9.80;;;;;;;20.14;100.00;100280.64;1728039;81;21152;-93
2022/08/02 05:35:23;;;;;;;;;;;;;;;20.22;100.00;100277.05;1729287;82;21289;-92
2022/08/02 05:37:51;;;;;;;10.50;9.50;;;;;;;20.25;100.00;100265.27;1730779;81;20147;-94
2022/08/02 05:40:19;;;;;;;10.55;9.55;;;;;;;20.26;100.00;100266.91;1784656;79;21536;-94
2022/08/02 05:42:46;;;;;;;10.20;9.18;;;;;;;20.29;100.00;100262.59;1786275;79;21056;-94
2022/08/02 05:45:13;;;;;;;11.05;10.05;;;;;;;20.35;100.00;100256.54;1784590;79;21038;-92
2022/08/02 05:47:40;;;;;;;11.00;10.10;;;;;;;20.42;100.00;100254.77;1795784;79;21535;-92
2022/08/02 05:50:09;;;;;;;9.50;8.70;;;;;;;20.46;100.00;100254.73;1794704;79;21034;-93
2022/08/02 05:53:08;;;;;;;10.63;9.73;;;;;;;20.55;100.00;100257.25;1728421;82;21026;-93
2022/08/02 05:55:43;;;;;;;10.50;8.90;;;;;;;20.57;100.00;100258.69;1741864;81;21080;-95
2022/08/02 05:58:30;;;;;;;10.65;9.58;;;;;;;20.56;100.00;100264.14;1735214;81;21152;-93
2022/08/02 06:01:02;;;;;;;10.88;9.98;;;;;;;20.56;100.00;100261.50;1733010;81;21182;-93
2022/08/02 06:03:38;;;;;;;10.23;9.35;;;;;;;20.60;100.00;100260.13;1785894;79;21022;-93
2022/08/02 06:06:16;;;;;;;9.58;8.70;;;;;;;20.67;100.00;100254.39;1790932;79;21598;-94
2022/08/02 06:08:47;;;;;;;9.20;8.40;;;;;;;20.78;100.00;100253.91;1793917;79;21509;-93
2022/08/02 06:11:21;;;;;;;9.28;8.45;;;;;;;20.91;100.00;100250.52;1777152;79;21080;-93
2022/08/02 06:13:50;;;;;;;10.68;9.78;;;;;;;21.03;100.00;100242.06;1785738;79;22120;-96
2022/08/02 06:16:19;;;;;;;9.88;8.98;;;;;;;21.14;100.00;100236.73;1733240;82;21507;-93
2022/08/02 06:18:48;;;;;;;10.75;9.70;;;;;;;21.23;100.00;100235.05;1745726;81;21093;-96
2022/08/02 06:21:20;;;;;;;11.15;10.15;;;;;;;21.26;100.00;100220.11;1734741;82;21101;-96
2022/08/02 06:23:47;;;;;;;9.83;9.03;;;;;;;21.30;100.00;100212.59;1735637;80;21500;-94
2022/08/02 06:26:16;;;;;;;10.75;9.75;;;;;;;21.34;100.00;100206.39;1790199;79;21121;-86
2022/08/02 06:28:44;;;;;;;10.35;9.35;;;;;;;21.35;100.00;100195.59;1800148;79;21603;-87
2022/08/02 06:31:13;;;;;;;9.23;8.50;;;;;;;21.39;100.00;100207.45;1781887;78;21096;-86
2022/08/02 06:33:40;;;;;;;10.90;9.98;;;;;;;21.48;100.00;100204.11;1758036;79;21034;-86
2022/08/02 06:36:31;;;;;;;9.45;8.65;;;;;;;21.55;100.00;100206.80;1782188;79;21136;-86
2022/08/02 06:39:24;;;;;;;11.20;10.20;;;;;;;21.62;100.00;100205.54;1782079;79;21993;-86
2022/08/02 06:41:54;;;;;;;9.18;8.48;;;;;;;21.69;100.00;100216.97;1786467;79;21034;-86
2022/08/02 06:44:23;;;;;;;9.78;8.93;;;;;;;21.74;100.00;100221.99;1796161;78;21053;-86
2022/08/02 06:46:50;;;;;;;9.18;8.28;;;;;;;21.82;100.00;100224.16;1784351;79;21004;-85
2022/08/02 06:49:17;;;;;;;8.85;8.00;;;;;;;21.96;100.00;100226.31;1788000;79;21511;-85
2022/08/02 06:51:44;;;;;;;8.70;7.90;;;;;;;22.08;100.00;100225.22;1738487;80;21136;-86
2022/08/02 06:54:11;;;;;;;7.67;7.00;;;;;;;22.19;100.00;100216.69;1740671;81;21666;-85
2022/08/02 06:56:38;;;;;;;7.72;7.12;;;;;;;22.33;100.00;100222.30;1738580;81;21138;-85
2022/08/02 06:59:06;;;;;;;8.03;7.35;;;;;;;22.48;100.00;100223.97;1787885;79;21051;-85
2022/08/02 07:01:33;;;;;;;7.72;7.05;;;;;;;22.64;100.00;100225.41;1785771;79;21041;-86
2022/08/02 07:04:00;;;;;;;8.48;7.78;;;;;;;22.83;100.00;100235.70;1732424;80;22251;-85
2022/08/02 07:06:28;;;;;;;8.20;7.50;;;;;;;22.99;100.00;100227.84;1742786;81;21010;-86
2022/08/02 07:08:56;;;;;;;8.10;7.37;;;;;;;23.07;100.00;100232.09;1734807;81;21633;-88
2022/08/02 07:11:23;;;;;;;7.47;6.78;;;;;;;23.20;100.00;100237.41;1798866;79;21065;-87
2022/08/02 07:13:50;;;;;;;7.33;6.65;;;;;;;23.34;100.00;100237.39;1725738;82;21061;-87
2022/08/02 07:16:18;;;;;;;7.08;6.53;;;;;;;23.52;100.00;100236.70;1739943;81;21126;-87
2022/08/02 07:18:45;;;;;;;8.23;7.53;;;;;;;23.71;100.00;100243.80;1744665;81;21586;-87
2022/08/02 07:21:12;;;;;;;7.28;6.70;;;;;;;23.85;100.00;100243.19;1807913;79;21061;-85
2022/08/02 07:23:39;;;;;;;9.48;7.00;;;;;;;23.94;100.00;100250.45;1801729;78;21299;-87
2022/08/02 07:26:07;;;;;;;7.80;7.20;;;;;;;24.01;100.00;100253.06;1730809;82;21544;-85
2022/08/02 07:28:34;;;;;;;7.92;7.33;;;;;;;24.01;100.00;100241.92;1742839;81;21142;-86
2022/08/02 07:31:01;;;;;;;8.20;7.60;;;;;;;24.03;100.00;100248.35;1803749;78;21096;-86
2022/08/02 07:33:28;;;;;;;7.65;7.05;;;;;;;24.02;100.00;100256.02;1809304;78;21030;-86
2022/08/02 07:35:56;;;;;;;7.75;7.05;;;;;;;24.02;100.00;100255.53;1810089;78;21527;-86
2022/08/02 07:38:24;;;;;;;8.18;7.55;;;;;;;24.03;100.00;100253.17;1800700;79;20998;-85
2022/08/02 07:40:51;;;;;;;8.05;7.33;;;;;;;24.02;100.00;100258.68;1804591;79;21138;-86
2022/08/02 07:43:18;;;;;;;7.80;7.10;;;;;;;23.97;100.00;100255.86;1810528;79;20982;-85
2022/08/02 07:45:45;;;;;;;7.78;7.08;;;;;;;23.90;100.00;100256.69;1794498;79;21066;-85
2022/08/02 07:48:12;;;;;;;8.28;7.60;;;;;;;23.90;100.00;100260.67;1805492;78;21045;-86
2022/08/02 07:50:39;;;;;;;7.78;7.17;;;;;;;23.97;100.00;100264.63;1808405;78;21045;-86
2022/08/02 07:53:06;;;;;;;7.87;7.08;;;;;;;24.05;100.00;100257.73;1732986;82;21233;-86
2022/08/02 07:55:33;;;;;;;8.35;7.60;;;;;;;24.13;100.00;100259.34;1737410;82;21014;-86
2022/08/02 07:58:01;;;;;;;7.70;7.10;;;;;;;24.22;100.00;100263.88;1746384;81;21005;-87
2022/08/02 08:00:28;;;;;;;8.83;8.03;;;;;;;24.33;100.00;100265.87;1756499;80;20962;-85
2022/08/02 08:02:55;;;;;;;8.40;7.70;;;;;;;24.37;100.00;100270.24;1741069;81;21531;-86
2022/08/02 08:05:22;;;;;;;8.20;7.50;;;;;;;24.32;100.00;100278.03;1744840;81;21120;-86
2022/08/02 08:07:49;;;;;;;7.70;7.10;;;;;;;24.32;100.00;100279.36;1799470;78;21037;-86
2022/08/02 08:10:16;;;;;;;7.97;7.28;;;;;;;24.38;100.00;100278.53;1803084;78;21002;-86
2022/08/02 08:12:43;;;;;;;8.48;7.78;;;;;;;24.39;100.00;100280.97;1801497;79;21029;-86
2022/08/02 08:15:10;;;;;;;7.70;7.10;;;;;;;24.28;100.00;100280.31;1803928;78;21021;-86
2022/08/02 08:17:38;;;;;;;7.50;6.90;;;;;;;24.18;100.00;100280.78;1806506;79;21210;-86
2022/08/02 08:20:06;;;;;;;7.55;6.95;;;;;;;24.21;100.00;100288.35;1792334;78;21326;-86
2022/08/02 08:22:33;;;;;;;7.60;6.90;;;;;;;24.31;100.00;100288.40;1727696;82;21567;-86
2022/08/02 08:25:00;;;;;;;8.20;7.45;;;;;;;24.34;100.00;100286.62;1746570;81;21014;-86
2022/08/02 08:27:27;;;;;;;9.93;7.17;;;;;;;24.37;100.00;100286.20;1736014;82;21056;-86
2022/08/02 08:29:54;;;;;;;8.08;7.42;;;;;;;24.42;100.00;100286.36;1745658;81;21153;-86
2022/08/02 08:32:21;;;;;;;8.25;7.55;;;;;;;24.40;100.00;100285.26;1800239;79;20982;-86
2022/08/02 08:34:50;;;;;;;7.87;7.22;;;;;;;24.37;100.00;100284.87;1805032;78;21014;-86
2022/08/02 08:37:17;;;;;;;7.33;6.70;;;;;;;24.44;100.00;100288.30;1743073;81;21011;-96
2022/08/02 08:39:45;;;;;;;7.40;6.80;;;;;;;24.64;100.00;100279.34;1752110;81;20963;-96
2022/08/02 08:42:12;;;;;;;7.25;6.55;;;;;;;24.88;100.00;100277.76;1801451;79;21113;-96
2022/08/02 08:44:39;;;;;;;7.62;7.03;;;;;;;25.10;100.00;100283.50;1808512;78;20970;-94
2022/08/02 08:47:08;;;;;;;7.40;6.80;;;;;;;25.27;100.00;100285.59;1797681;78;20969;-96
2022/08/02 08:49:43;;;;;;;7.60;6.92;;;;;;;25.31;100.00;100291.59;1806437;78;21045;-96
2022/08/02 08:52:11;;;;;;;7.95;7.35;;;;;;;25.33;100.00;100292.70;1794118;79;21030;-96
2022/08/02 08:54:41;;;;;;;8.63;7.92;;;;;;;25.29;100.00;100290.99;1811986;78;21162;-95
2022/08/02 09:00:14;;;;;;;8.50;7.72;;;;;;;25.01;100.00;100304.26;1729356;80;20848;-96
2022/08/02 09:02:43;;;;;;;8.65;7.83;;;;;;;24.80;100.00;100298.00;1714145;81;22212;-93
2022/08/02 09:05:14;;;;;;;8.30;7.60;;;;;;;24.82;100.00;100304.73;1689850;79;21073;-94
2022/08/02 09:07:47;;;;;;;7.28;6.67;;;;;;;24.97;100.00;100299.58;1748095;80;21156;-94
2022/08/02 09:10:44;;;;;;;7.62;7.03;;;;;;;25.13;100.00;100297.69;1745586;80;21053;-94
2022/08/02 09:13:16;;;;;;;7.62;6.97;;;;;;;25.38;100.00;100300.83;1744710;81;21029;-92
2022/08/02 09:15:54;;;;;;;8.00;7.40;;;;;;;25.56;100.00;100289.91;1751118;80;20955;-96
2022/08/02 09:18:42;;;;;;;8.48;7.78;;;;;;;25.67;100.00;100287.31;1753763;80;20974;-96
2022/08/02 09:21:09;;;;;;;7.80;7.20;;;;;;;25.68;100.00;100285.45;1746836;80;21171;-96
2022/08/02 09:23:42;;;;;;;7.95;7.35;;;;;;;25.77;100.00;100296.64;1717096;78;21086;-96
2022/08/02 09:26:17;;;;;;;7.12;6.53;;;;;;;25.84;100.00;100293.37;1707053;82;21037;-91
2022/08/02 09:28:48;;;;;;;7.53;6.92;;;;;;;25.90;100.00;100294.33;1693544;83;21023;-91
2022/08/02 09:31:24;;;;;;;7.80;7.20;;;;;;;25.91;100.00;100297.29;1692880;84;20967;-96
2022/08/02 09:33:59;;;;;;;8.23;7.53;;;;;;;26.00;100.00;100302.58;1697683;82;21616;-95
2022/08/02 09:36:40;;;;;;;8.05;7.45;;;;;;;26.11;100.00;100301.86;1701882;82;21121;-95
2022/08/02 09:39:11;;;;;;;8.33;7.72;;;;;;;26.21;100.00;100289.30;1697003;83;21015;-95
2022/08/02 09:41:42;;;;;;;8.00;7.30;;;;;;;26.30;100.00;100293.81;1700760;83;20963;-95
2022/08/02 09:44:12;;;;;;;7.77;7.17;;;;;;;26.38;100.00;100292.66;1700953;83;21012;-94
2022/08/02 09:46:43;;;;;;;7.35;6.72;;;;;;;26.42;100.00;100291.17;1684061;83;21137;-90
2022/08/02 09:49:17;;;;;;;7.53;6.92;;;;;;;26.38;100.00;100294.81;1647321;84;21090;-96
2022/08/02 09:51:49;;;;;;;7.55;6.90;;;;;;;26.29;100.00;100297.52;1675860;84;21498;-96
2022/08/02 09:54:27;;;;;;;7.50;6.90;;;;;;;26.21;100.00;100301.84;1676412;83;21154;-96
2022/08/02 09:57:00;;;;;;;7.78;7.15;;;;;;;26.20;100.00;100304.20;1687381;83;21097;-96
2022/08/02 09:59:28;;;;;;;7.20;6.62;;;;;;;26.19;100.00;100298.07;1702568;82;21275;-96
2022/08/02 10:01:58;;;;;;;8.00;7.40;;;;;;;26.20;100.00;100294.34;1701435;82;21012;-96
2022/08/02 10:04:32;;;;;;;8.03;7.42;;;;;;;26.18;100.00;100292.44;1704928;83;20999;-96
2022/08/02 10:06:58;;;;;;;7.90;7.30;;;;;;;26.11;100.00;100293.86;1699467;83;21046;-96
2022/08/02 10:09:27;;;;;;;7.92;7.33;;;;;;;25.92;100.00;100301.59;1700966;83;21588;-96
2022/08/02 10:12:01;;;;;;;8.33;7.63;;;;;;;25.80;100.00;100298.84;1707058;83;21138;-95
2022/08/02 10:14:29;;;;;;;8.60;7.90;;;;;;;25.69;100.00;100300.41;1682066;83;21032;-95
2022/08/02 10:16:57;;;;;;;8.40;7.55;;;;;;;25.62;100.00;100292.51;1683998;83;21209;-96
2022/08/02 10:19:25;;;;;;;7.87;7.28;;;;;;;25.60;100.00;100295.11;1698991;83;21075;-96
2022/08/02 10:21:59;;;;;;;8.45;7.65;;;;;;;25.56;100.00;100289.91;1677432;83;21059;-94
2022/08/02 10:24:30;;;;;;;8.15;7.45;;;;;;;25.57;100.00;100302.20;1673023;84;21720;-94
2022/08/02 10:26:59;;;;;;;8.75;7.80;;;;;;;25.57;100.00;100302.20;1701774;82;20996;-94
2022/08/02 10:29:37;;;;;;;8.55;7.85;;;;;;;25.59;100.00;100299.61;1693299;83;21015;-96
2022/08/02 10:32:25;;;;;;;7.78;7.22;;;;;;;25.62;100.00;100299.67;1703885;82;21133;-93
2022/08/02 10:35:10;;;;;;;8.48;7.78;;;;;;;25.64;100.00;100299.74;1693160;83;20974;-96
2022/08/02 10:37:39;;;;;;;7.90;7.30;;;;;;;25.69;100.00;100301.74;1701142;83;21621;-96
2022/08/02 10:40:21;;;;;;;8.70;7.95;;;;;;;25.71;100.00;100302.88;1697509;83;21030;-94
2022/08/02 10:42:46;;;;;;;8.60;7.90;;;;;;;25.72;100.00;100301.30;1693381;83;21586;-95
2022/08/02 10:45:18;;;;;;;9.13;8.33;;;;;;;25.78;100.00;100300.41;1702826;82;22217;-96
2022/08/02 10:48:05;;;;;;;7.85;7.25;;;;;;;25.82;100.00;100303.44;1709575;83;21034;-94
2022/08/02 10:50:51;;;;;;;7.65;6.95;;;;;;;25.87;100.00;100305.43;1706696;83;21230;-94
2022/08/02 10:53:23;;;;;;;8.05;7.35;;;;;;;25.89;100.00;100301.50;1705667;83;21070;-92
2022/08/02 10:55:51;;;;;;;7.87;7.17;;;;;;;25.96;100.00;100296.89;1696634;82;21031;-96
2022/08/02 10:58:23;;;;;;;7.53;6.92;;;;;;;26.09;100.00;100303.13;1705500;82;21026;-94
2022/08/02 11:14:17;;;;;;;7.80;7.10;;;;;;;27.12;100.00;100278.94;1829361;77;22808;-95
2022/08/02 11:17:04;;;;;;;7.97;7.37;;;;;;;27.08;100.00;100280.47;1758388;80;21024;-95
2022/08/02 11:19:33;;;;;;;7.42;6.72;;;;;;;27.07;100.00;100270.82;1723691;82;21618;-95
2022/08/02 11:22:08;;;;;;;7.92;7.33;;;;;;;27.13;100.00;100271.22;1724792;82;20993;-95
2022/08/02 11:24:38;;;;;;;7.42;6.92;;;;;;;27.19;100.00;100263.59;1717821;82;21496;-96
2022/08/02 11:27:18;;;;;;;8.38;7.65;;;;;;;27.15;100.00;100265.62;1679820;84;20989;-94
2022/08/02 11:29:49;;;;;;;7.72;7.15;;;;;;;27.11;100.00;100261.81;1700973;83;21784;-92
2022/08/02 11:32:23;;;;;;;7.78;7.17;;;;;;;27.12;100.00;100274.13;1688749;83;21086;-93
2022/08/02 11:34:53;;;;;;;8.08;7.47;;;;;;;27.11;100.00;100265.82;1716096;81;20970;-95
2022/08/02 11:37:38;;;;;;;7.90;7.20;;;;;;;27.09;100.00;100267.37;1679187;84;21609;-93
2022/08/02 11:40:10;;;;;;;8.00;7.30;;;;;;;27.10;100.00;100264.99;1676203;84;21101;-96
2022/08/02 11:42:43;;;;;;;7.97;7.37;;;;;;;27.27;100.00;100255.75;1698085;81;21072;-93
2022/08/02 11:45:14;;;;;;;7.72;7.00;;;;;;;27.42;100.00;100256.60;1708056;83;21161;-95
2022/08/02 11:47:47;;;;;;;8.60;7.90;;;;;;;27.41;100.00;100254.94;1702525;83;20985;-95
2022/08/02 11:50:16;;;;;;;8.13;7.53;;;;;;;27.36;100.00;100254.31;1707999;82;21137;-96
2022/08/02 11:52:43;;;;;;;8.45;7.65;;;;;;;27.27;100.00;100247.73;1693360;80;21288;-90
2022/08/02 11:55:12;;;;;;;7.90;7.12;;;;;;;27.19;100.00;100245.42;1724165;81;21095;-95